Time;durP1;ratioP1;P1;durP2;ratioP2;P2;SDS_P1;SDS_P2;PMS_P1;PMS_P2;Temp;Humidity;BMP_temperature;BMP_pressure;BME280_temperature;BME280_humidity;BME280_pressure;Samples;Min_cycle;Max_cycle;Signal;HPM_P1;HPM_P2
2022/05/21 00:01:49;;;;;;;9.10;4.50;;;23.30;76.20;;;;;;5073748;28;20044;-75
2022/05/21 00:04:15;;;;;;;7.70;4.00;;;23.30;76.10;;;;;;5073487;28;20098;-76
2022/05/21 00:06:41;;;;;;;8.90;4.00;;;23.30;75.90;;;;;;5073419;28;20055;-76
2022/05/21 00:09:08;;;;;;;5.95;3.80;;;23.30;75.60;;;;;;5055407;28;20024;-75
2022/05/21 00:11:35;;;;;;;7.38;4.40;;;23.30;75.40;;;;;;5073452;28;20078;-75
2022/05/21 00:14:02;;;;;;;8.43;4.43;;;23.30;75.30;;;;;;5073447;28;20031;-76
2022/05/21 00:16:29;;;;;;;5.78;4.47;;;23.30;75.10;;;;;;5073313;28;20036;-76
2022/05/21 00:18:55;;;;;;;5.53;4.43;;;23.30;74.80;;;;;;5074109;28;20017;-76
2022/05/21 00:21:21;;;;;;;7.20;3.65;;;23.40;74.80;;;;;;5073267;28;20436;-76
2022/05/21 00:23:47;;;;;;;11.85;5.00;;;23.40;74.70;;;;;;5073202;28;20059;-76
2022/05/21 00:26:15;;;;;;;10.05;5.55;;;23.40;74.50;;;;;;5073117;28;20040;-75
2022/05/21 00:28:43;;;;;;;6.88;4.80;;;23.40;74.10;;;;;;5073173;28;20016;-76
2022/05/21 00:31:12;;;;;;;8.93;5.25;;;23.30;73.90;;;;;;5089159;28;20432;-76
2022/05/21 00:33:40;;;;;;;5.95;4.40;;;23.30;73.70;;;;;;5093052;28;20052;-76
2022/05/21 00:36:07;;;;;;;11.85;4.45;;;23.30;73.50;;;;;;5092847;28;20024;-75
2022/05/21 00:38:34;;;;;;;14.07;5.22;;;23.30;73.50;;;;;;5074891;28;20510;-77
2022/05/21 00:41:00;;;;;;;9.00;4.93;;;23.30;73.40;;;;;;5092895;28;20028;-75
2022/05/21 00:43:50;;;;;;;6.35;4.63;;;23.30;73.50;;;;;;5093107;28;20031;-76
2022/05/21 00:46:22;;;;;;;7.82;4.65;;;23.30;73.20;;;;;;5074969;28;20020;-76
2022/05/21 00:49:18;;;;;;;10.45;4.65;;;23.30;73.20;;;;;;5092597;28;20377;-77
2022/05/21 00:51:50;;;;;;;6.57;4.40;;;23.30;73.40;;;;;;5074036;28;20028;-77
2022/05/21 00:54:18;;;;;;;6.32;4.53;;;23.30;73.20;;;;;;5092908;28;20024;-78
2022/05/21 00:56:57;;;;;;;11.40;4.15;;;23.30;73.20;;;;;;5092862;28;20030;-77
2022/05/21 01:02:15;;;;;;;6.15;4.05;;;23.30;73.20;;;;;;5092650;28;20470;-76
2022/05/21 01:04:45;;;;;;;8.10;4.38;;;23.30;73.00;;;;;;5092561;28;20020;-77
2022/05/21 01:07:16;;;;;;;8.57;5.00;;;23.30;73.00;;;;;;5092542;28;20016;-77
2022/05/21 01:09:53;;;;;;;10.30;4.22;;;23.30;72.80;;;;;;5075218;28;20020;-77
2022/05/21 01:12:32;;;;;;;7.70;4.32;;;23.20;72.20;;;;;;5072339;28;20097;-77
2022/05/21 01:15:04;;;;;;;7.45;4.32;;;23.20;71.80;;;;;;5072306;28;20545;-77
2022/05/21 01:17:33;;;;;;;8.48;4.30;;;23.10;71.90;;;;;;5067441;28;20496;-77
2022/05/21 01:20:13;;;;;;;7.85;4.57;;;23.10;71.80;;;;;;5092464;28;20043;-76
2022/05/21 01:22:48;;;;;;;8.88;5.15;;;23.00;71.90;;;;;;5092388;28;20063;-75
2022/05/21 01:25:18;;;;;;;8.15;4.30;;;23.00;72.00;;;;;;5087670;28;20021;-75
2022/05/21 01:27:47;;;;;;;8.70;4.72;;;23.00;72.30;;;;;;5072233;28;20130;-77
2022/05/21 01:30:22;;;;;;;8.07;4.35;;;23.00;72.60;;;;;;5080402;28;20025;-76
2022/05/21 01:32:50;;;;;;;8.27;4.95;;;23.00;72.70;;;;;;5092429;28;20020;-75
2022/05/21 01:35:18;;;;;;;6.95;4.75;;;23.10;74.10;;;;;;5074254;28;20462;-78
2022/05/21 01:37:46;;;;;;;8.88;5.00;;;23.00;73.50;;;;;;5079847;28;20399;-78
2022/05/21 01:40:14;;;;;;;7.90;4.43;;;23.00;73.30;;;;;;5072139;28;20028;-77
2022/05/21 01:42:42;;;;;;;11.40;4.13;;;23.00;72.80;;;;;;5054743;28;20048;-76
2022/05/21 01:45:10;;;;;;;7.43;3.85;;;23.00;72.70;;;;;;5072145;28;20021;-76
2022/05/21 01:47:41;;;;;;;7.25;3.90;;;22.90;72.80;;;;;;5054169;28;20023;-75
2022/05/21 01:50:07;;;;;;;8.65;4.50;;;22.90;73.10;;;;;;5070978;28;20383;-76
2022/05/21 01:52:34;;;;;;;6.22;4.05;;;22.90;73.10;;;;;;5054578;28;20382;-77
2022/05/21 01:55:02;;;;;;;7.72;4.95;;;22.90;73.20;;;;;;5072036;28;20362;-76
2022/05/21 01:57:29;;;;;;;8.77;4.55;;;22.80;73.40;;;;;;5055343;28;20406;-75
2022/05/21 01:59:58;;;;;;;11.55;4.90;;;22.90;73.40;;;;;;5085109;28;20048;-77
2022/05/21 02:02:25;;;;;;;8.32;3.90;;;22.80;73.40;;;;;;5099080;28;20024;-75
2022/05/21 02:04:51;;;;;;;10.77;5.05;;;22.80;73.40;;;;;;5080995;28;20031;-78
2022/05/21 02:07:16;;;;;;;6.78;3.97;;;22.80;73.40;;;;;;5080622;28;20021;-78
2022/05/21 02:09:42;;;;;;;10.23;4.18;;;22.80;73.10;;;;;;5096238;28;20424;-76
2022/05/21 02:12:11;;;;;;;8.73;3.88;;;22.80;74.00;;;;;;5095933;28;20450;-74
2022/05/21 02:14:38;;;;;;;6.90;4.00;;;22.80;73.30;;;;;;5092741;28;20071;-77
2022/05/21 02:17:04;;;;;;;5.93;4.38;;;22.80;73.00;;;;;;5075421;28;20021;-78
2022/05/21 02:19:29;;;;;;;7.40;4.43;;;22.80;73.00;;;;;;5075359;28;20032;-75
2022/05/21 02:21:58;;;;;;;9.70;4.60;;;22.80;73.00;;;;;;5057292;28;20029;-76
2022/05/21 02:24:24;;;;;;;7.43;4.05;;;22.80;72.90;;;;;;5075364;28;20028;-78
2022/05/21 02:26:50;;;;;;;7.78;4.00;;;22.70;72.90;;;;;;5075259;28;20012;-76
2022/05/21 02:29:18;;;;;;;5.10;3.70;;;22.70;72.60;;;;;;5075211;28;20027;-75
2022/05/21 02:31:44;;;;;;;8.90;3.95;;;22.70;72.40;;;;;;5075122;28;20039;-78
2022/05/21 02:34:10;;;;;;;5.38;3.15;;;22.60;72.30;;;;;;5075191;28;20029;-76
2022/05/21 02:39:28;;;;;;;9.82;3.83;;;22.60;73.00;;;;;;5075472;28;20035;-77
2022/05/21 02:41:56;;;;;;;5.78;3.83;;;22.50;72.40;;;;;;5074875;28;20470;-78
2022/05/21 02:44:22;;;;;;;5.47;3.80;;;22.40;72.40;;;;;;5074951;28;20016;-77
2022/05/21 02:46:48;;;;;;;7.50;3.60;;;22.50;72.40;;;;;;5074964;28;20408;-76
2022/05/21 02:49:14;;;;;;;8.05;4.07;;;22.40;72.60;;;;;;5074820;28;20038;-76
2022/05/21 02:51:40;;;;;;;6.28;3.83;;;22.40;72.70;;;;;;5074829;28;20023;-75
2022/05/21 02:54:06;;;;;;;6.20;3.80;;;22.40;72.70;;;;;;5056820;28;20029;-75
2022/05/21 02:56:35;;;;;;;5.68;3.40;;;22.40;72.70;;;;;;5074750;28;20512;-77
2022/05/21 02:59:01;;;;;;;10.30;3.45;;;22.40;72.70;;;;;;5056966;28;20381;-76
2022/05/21 03:01:27;;;;;;;7.53;3.60;;;22.40;72.80;;;;;;5074327;28;20123;-76
2022/05/21 03:03:52;;;;;;;4.78;3.13;;;22.30;73.00;;;;;;5074465;28;20441;-75
2022/05/21 03:06:18;;;;;;;3.78;3.15;;;22.40;73.20;;;;;;5093079;28;20112;-75
2022/05/21 03:11:28;;;;;;;5.68;3.70;;;22.40;73.30;;;;;;5094532;28;20062;-76
2022/05/21 03:13:54;;;;;;;7.85;4.88;;;22.40;72.80;;;;;;5094503;28;20048;-75
2022/05/21 03:16:19;;;;;;;7.10;3.60;;;22.30;72.80;;;;;;5094338;28;20099;-76
2022/05/21 03:18:45;;;;;;;5.28;3.95;;;22.30;73.40;;;;;;5093133;28;20430;-78
2022/05/21 03:21:13;;;;;;;8.40;3.63;;;22.30;72.60;;;;;;5092234;28;20028;-76
2022/05/21 03:23:39;;;;;;;10.82;5.03;;;22.30;72.30;;;;;;5092239;28;20020;-77
2022/05/21 03:26:05;;;;;;;6.30;3.45;;;22.20;72.40;;;;;;5090474;28;20050;-77
2022/05/21 03:28:31;;;;;;;4.78;3.20;;;22.20;72.50;;;;;;5087260;28;20438;-77
2022/05/21 03:30:57;;;;;;;5.50;3.75;;;22.20;72.70;;;;;;5083481;28;20063;-76
2022/05/21 03:33:23;;;;;;;7.40;3.90;;;22.20;72.80;;;;;;5074031;28;20103;-76
2022/05/21 03:35:49;;;;;;;13.15;4.80;;;22.10;72.90;;;;;;5056503;28;20021;-76
2022/05/21 03:38:15;;;;;;;9.38;4.35;;;22.10;72.90;;;;;;5073941;28;20044;-76
2022/05/21 03:40:41;;;;;;;9.60;5.90;;;22.10;72.80;;;;;;5073809;28;20036;-75
2022/05/21 03:43:09;;;;;;;8.73;4.60;;;22.10;72.70;;;;;;5074548;28;20021;-77
2022/05/21 03:45:35;;;;;;;9.07;5.20;;;22.10;72.80;;;;;;5079097;28;20099;-75
2022/05/21 03:48:00;;;;;;;6.85;4.90;;;22.10;72.60;;;;;;5058625;28;20163;-76
2022/05/21 03:50:31;;;;;;;11.52;5.72;;;22.10;72.80;;;;;;5073685;28;20027;-77
2022/05/21 03:52:57;;;;;;;7.70;4.38;;;22.10;72.60;;;;;;5084133;28;20021;-77
2022/05/21 03:55:23;;;;;;;16.17;6.68;;;22.10;72.70;;;;;;5073577;28;20032;-76
2022/05/21 03:57:48;;;;;;;6.90;4.45;;;22.10;72.70;;;;;;5073447;28;20024;-77
2022/05/21 04:00:16;;;;;;;8.88;4.50;;;22.10;72.80;;;;;;5080138;28;20081;-76
2022/05/21 04:02:42;;;;;;;8.30;4.35;;;22.10;72.80;;;;;;5087886;28;20381;-76
2022/05/21 04:05:10;;;;;;;9.82;5.43;;;22.10;72.80;;;;;;5089597;28;20024;-75
2022/05/21 04:07:37;;;;;;;7.60;5.10;;;22.00;72.60;;;;;;5075660;28;20012;-76
2022/05/21 04:10:03;;;;;;;7.68;3.70;;;22.10;72.90;;;;;;5075704;28;20031;-76
2022/05/21 04:12:29;;;;;;;6.85;4.18;;;22.10;73.00;;;;;;5093703;28;20422;-78
2022/05/21 04:14:55;;;;;;;6.82;4.15;;;22.00;72.90;;;;;;5064251;28;20021;-75
2022/05/21 04:17:20;;;;;;;9.32;6.35;;;22.10;73.10;;;;;;5084123;28;20030;-78
2022/05/21 04:19:46;;;;;;;7.45;5.10;;;22.10;73.40;;;;;;5071863;28;20081;-76
2022/05/21 04:22:12;;;;;;;9.75;4.70;;;22.10;73.50;;;;;;5079417;28;20032;-76
2022/05/21 04:24:38;;;;;;;8.00;4.10;;;22.10;73.70;;;;;;5074508;28;20397;-77
2022/05/21 04:27:04;;;;;;;7.95;4.47;;;22.20;74.20;;;;;;5082482;28;20377;-78
2022/05/21 04:29:30;;;;;;;8.05;4.75;;;22.20;74.50;;;;;;5089866;28;20497;-77
2022/05/21 04:31:56;;;;;;;8.90;4.00;;;22.30;74.80;;;;;;5088407;28;20039;-76
2022/05/21 04:34:22;;;;;;;8.35;4.32;;;22.40;74.60;;;;;;5072879;28;20028;-78
2022/05/21 04:36:49;;;;;;;8.27;4.70;;;22.40;74.70;;;;;;5072991;28;20394;-76
2022/05/21 04:39:15;;;;;;;12.15;4.70;;;22.50;74.80;;;;;;5077015;28;20449;-75
2022/05/21 04:41:40;;;;;;;7.20;4.63;;;22.60;74.80;;;;;;5072760;28;20052;-75
2022/05/21 04:44:07;;;;;;;9.88;4.82;;;22.70;74.60;;;;;;5070644;28;20024;-78
2022/05/21 04:46:35;;;;;;;7.43;4.30;;;22.70;73.90;;;;;;5092616;28;20008;-75
2022/05/21 04:49:01;;;;;;;8.48;4.40;;;22.70;73.40;;;;;;5058121;28;20112;-76
2022/05/21 04:51:26;;;;;;;10.55;4.93;;;22.70;73.30;;;;;;5072803;28;20036;-77
2022/05/21 04:53:52;;;;;;;6.18;4.15;;;22.80;73.20;;;;;;5054711;28;20082;-76
2022/05/21 04:56:18;;;;;;;6.78;4.80;;;22.80;73.40;;;;;;5055437;28;20466;-77
2022/05/21 04:58:44;;;;;;;6.43;4.38;;;22.80;73.10;;;;;;5092098;28;20099;-75
2022/05/21 05:01:10;;;;;;;9.77;4.57;;;22.80;72.80;;;;;;5085317;28;20037;-78
2022/05/21 05:03:35;;;;;;;15.02;5.22;;;22.80;72.90;;;;;;5091112;28;20024;-76
2022/05/21 05:06:01;;;;;;;5.55;4.85;;;22.80;73.50;;;;;;5079328;28;20023;-75
2022/05/21 05:08:27;;;;;;;8.95;5.18;;;22.80;72.80;;;;;;5072512;28;20025;-76
2022/05/21 05:10:53;;;;;;;7.43;4.20;;;22.80;73.10;;;;;;5072587;28;20029;-76
2022/05/21 05:13:19;;;;;;;5.55;4.03;;;22.80;73.60;;;;;;5073126;28;20687;-78
2022/05/21 05:15:46;;;;;;;6.05;4.57;;;22.90;74.10;;;;;;5078575;28;20103;-76
2022/05/21 05:18:18;;;;;;;8.10;4.75;;;23.00;74.20;;;;;;5092667;28;20046;-77
2022/05/21 05:20:45;;;;;;;9.95;4.45;;;23.00;74.00;;;;;;5081403;28;21332;-77
2022/05/21 05:23:11;;;;;;;7.22;4.30;;;23.10;73.70;;;;;;5058724;28;20276;-75
2022/05/21 05:25:37;;;;;;;6.97;4.10;;;23.20;73.30;;;;;;5074087;28;20017;-78
2022/05/21 05:28:03;;;;;;;9.05;4.50;;;23.20;72.80;;;;;;5084337;28;20454;-76
2022/05/21 05:30:29;;;;;;;7.80;4.30;;;23.20;71.20;;;;;;5075163;28;20428;-78
2022/05/21 05:32:55;;;;;;;8.32;3.80;;;23.20;70.60;;;;;;5075830;28;20086;-78
2022/05/21 05:35:22;;;;;;;7.45;3.47;;;23.10;70.40;;;;;;5071602;28;20024;-76
2022/05/21 05:37:49;;;;;;;8.98;3.67;;;23.20;71.00;;;;;;5083715;28;20138;-75
2022/05/21 05:40:19;;;;;;;6.63;3.10;;;23.20;71.10;;;;;;5067839;28;20473;-75
2022/05/21 05:42:44;;;;;;;6.65;3.35;;;23.20;71.00;;;;;;5097042;28;20024;-75
2022/05/21 05:45:14;;;;;;;6.50;3.13;;;23.20;69.00;;;;;;5097463;28;20434;-76
2022/05/21 05:47:40;;;;;;;6.32;2.95;;;23.10;68.80;;;;;;5096534;28;20028;-77
2022/05/21 05:50:07;;;;;;;5.50;2.83;;;23.10;69.60;;;;;;5096378;28;20020;-77
2022/05/21 05:52:33;;;;;;;5.70;3.08;;;23.10;68.40;;;;;;5066681;28;20060;-75
2022/05/21 05:54:59;;;;;;;6.78;3.00;;;23.10;68.40;;;;;;5073381;28;20031;-76
2022/05/21 05:57:25;;;;;;;6.40;2.55;;;23.00;66.50;;;;;;5096302;28;20478;-74
2022/05/21 05:59:51;;;;;;;4.85;2.95;;;23.00;67.20;;;;;;5094624;28;20020;-76
2022/05/21 06:05:04;;;;;;;5.75;3.35;;;23.00;67.00;;;;;;5092743;28;20027;-75
2022/05/21 06:07:30;;;;;;;4.97;2.70;;;23.00;67.60;;;;;;5091989;28;20028;-75
2022/05/21 06:10:04;;;;;;;7.65;3.00;;;23.00;68.10;;;;;;5094754;28;20039;-77
2022/05/21 06:12:31;;;;;;;;;;;23.10;67.50;;;;;;5074861;28;20020;-76
2022/05/21 06:14:58;;;;;;;10.13;3.28;;;23.10;66.80;;;;;;5090163;28;19911;-75
2022/05/21 06:17:25;;;;;;;5.60;2.70;;;23.10;66.10;;;;;;5095336;28;20069;-75
2022/05/21 06:19:52;;;;;;;3.65;2.45;;;23.20;64.90;;;;;;5099908;28;20016;-76
2022/05/21 06:22:18;;;;;;;4.57;2.55;;;23.20;65.30;;;;;;5095356;28;20055;-77
2022/05/21 06:24:44;;;;;;;4.70;2.80;;;23.20;65.20;;;;;;5095980;28;20031;-77
2022/05/21 06:27:10;;;;;;;6.35;2.80;;;23.30;65.90;;;;;;5087512;28;20013;-76
2022/05/21 06:29:36;;;;;;;4.05;2.38;;;23.30;63.40;;;;;;5075877;28;20023;-76
2022/05/21 06:32:04;;;;;;;4.20;2.70;;;23.40;64.40;;;;;;5089884;28;20020;-76
2022/05/21 06:34:30;;;;;;;7.07;2.80;;;23.40;61.00;;;;;;5082128;28;20024;-76
2022/05/21 06:36:55;;;;;;;3.13;2.10;;;23.30;61.40;;;;;;5074683;28;20028;-75
2022/05/21 06:39:21;;;;;;;7.30;2.95;;;23.30;60.80;;;;;;5094746;28;20095;-75
2022/05/21 06:41:47;;;;;;;8.13;3.42;;;23.30;59.80;;;;;;5094525;28;20085;-76
2022/05/21 06:44:12;;;;;;;5.05;3.38;;;23.30;59.50;;;;;;5095464;28;20500;-76
2022/05/21 06:46:38;;;;;;;4.45;3.28;;;23.30;60.70;;;;;;5077446;28;20039;-77
2022/05/21 06:49:04;;;;;;;5.35;2.50;;;23.30;60.00;;;;;;5074646;28;20028;-77
2022/05/21 06:51:30;;;;;;;4.95;3.08;;;23.30;58.30;;;;;;5091161;28;20028;-77
2022/05/21 06:53:56;;;;;;;2.97;1.95;;;23.30;58.40;;;;;;5095352;28;20016;-77
2022/05/21 06:56:22;;;;;;;3.47;2.75;;;23.40;58.60;;;;;;5094022;28;20154;-78
2022/05/21 06:58:50;;;;;;;4.90;2.70;;;23.40;59.60;;;;;;5095242;28;20031;-77
2022/05/21 07:01:16;;;;;;;5.40;2.40;;;23.50;57.70;;;;;;5093210;28;20044;-78
2022/05/21 07:03:42;;;;;;;4.78;2.65;;;23.60;58.30;;;;;;5076855;28;20431;-77
2022/05/21 07:08:51;;;;;;;;;;;23.80;58.20;;;;;;5091944;28;20396;-78
2022/05/21 07:11:17;;;;;;;4.07;2.25;;;24.00;59.50;;;;;;5076924;28;19904;-76
2022/05/21 07:13:44;;;;;;;8.40;2.85;;;24.10;56.10;;;;;;5075342;28;20494;-78
2022/05/21 07:16:10;;;;;;;5.57;2.60;;;24.10;56.30;;;;;;5074930;28;20033;-77
2022/05/21 07:18:36;;;;;;;5.35;2.47;;;24.30;56.80;;;;;;5056771;28;20025;-79
2022/05/21 07:21:02;;;;;;;4.97;2.63;;;24.40;57.20;;;;;;5074670;28;20040;-78
2022/05/21 07:23:29;;;;;;;6.38;2.35;;;24.50;55.40;;;;;;5056533;28;20021;-74
2022/05/21 07:25:55;;;;;;;4.47;2.15;;;24.70;56.00;;;;;;5092396;28;20073;-77
2022/05/21 07:28:21;;;;;;;4.93;2.35;;;24.80;55.40;;;;;;5061085;28;20059;-77
2022/05/21 07:30:48;;;;;;;4.95;2.10;;;24.90;53.80;;;;;;5094765;28;20016;-76
2022/05/21 07:33:19;;;;;;;2.38;2.08;;;25.00;54.60;;;;;;5075977;28;20017;-76
2022/05/21 07:35:46;;;;;;;4.50;1.75;;;25.10;54.20;;;;;;5079742;28;20030;-76
2022/05/21 07:38:13;;;;;;;3.17;1.75;;;25.20;53.70;;;;;;5093599;28;20485;-77
2022/05/21 07:40:40;;;;;;;4.75;2.25;;;25.30;54.90;;;;;;5074270;28;20032;-77
2022/05/21 07:43:15;;;;;;;6.72;2.00;;;25.40;52.90;;;;;;5074092;28;20028;-76
2022/05/21 07:45:43;;;;;;;3.35;1.80;;;25.40;52.70;;;;;;5074120;28;20032;-77
2022/05/21 07:48:12;;;;;;;4.43;2.60;;;25.50;54.20;;;;;;5056277;28;20025;-77
2022/05/21 07:50:40;;;;;;;3.25;2.05;;;25.60;52.50;;;;;;5074531;28;20475;-77
2022/05/21 07:53:15;;;;;;;4.38;2.88;;;25.60;51.10;;;;;;5076074;28;20032;-77
2022/05/21 07:55:43;;;;;;;2.80;2.25;;;25.50;49.80;;;;;;5094171;28;20028;-77
2022/05/21 07:58:10;;;;;;;5.85;2.65;;;25.60;50.60;;;;;;5094062;28;20035;-76
2022/05/21 08:00:37;;;;;;;5.05;2.20;;;25.60;49.10;;;;;;5085402;28;20041;-77
2022/05/21 08:03:03;;;;;;;3.30;2.00;;;25.70;50.20;;;;;;5073681;28;20020;-77
2022/05/21 08:05:29;;;;;;;4.95;2.40;;;25.70;50.70;;;;;;5073713;28;20017;-76
2022/05/21 08:07:56;;;;;;;4.85;1.98;;;25.80;50.50;;;;;;5073619;28;20414;-76
2022/05/21 08:10:23;;;;;;;4.55;2.25;;;25.90;49.10;;;;;;5073318;28;20040;-78
2022/05/21 08:12:50;;;;;;;6.00;1.90;;;26.00;49.90;;;;;;5073592;28;20039;-77
2022/05/21 08:15:16;;;;;;;5.40;2.45;;;26.00;49.90;;;;;;5079031;28;20020;-76
2022/05/21 08:17:43;;;;;;;5.53;2.10;;;26.00;48.90;;;;;;5093834;28;20489;-78
2022/05/21 08:20:11;;;;;;;5.22;2.10;;;26.00;49.20;;;;;;5093063;28;20481;-76
2022/05/21 08:28:07;;;;;;;4.50;2.40;;;25.90;47.80;;;;;;5079471;28;20035;-76
2022/05/21 08:30:33;;;;;;;4.20;2.03;;;25.90;48.20;;;;;;5073190;28;20021;-77
2022/05/21 08:33:04;;;;;;;6.18;2.28;;;25.90;48.30;;;;;;5072873;28;20091;-76
2022/05/21 08:35:31;;;;;;;9.75;2.00;;;25.80;46.70;;;;;;5073167;28;20035;-76
2022/05/21 08:37:57;;;;;;;12.45;2.90;;;25.70;46.40;;;;;;5055217;28;20111;-77
2022/05/21 08:40:34;;;;;;;4.30;2.00;;;25.50;46.00;;;;;;5055096;28;20101;-77
2022/05/21 08:43:03;;;;;;;4.68;2.10;;;25.40;47.50;;;;;;5055183;28;20445;-76
2022/05/21 08:46:09;;;;;;;3.70;1.88;;;25.30;46.80;;;;;;5073158;28;20016;-76
2022/05/21 08:48:37;;;;;;;3.08;2.25;;;25.30;48.20;;;;;;5072991;28;20028;-76
2022/05/21 08:51:08;;;;;;;8.73;1.73;;;25.20;46.10;;;;;;5054977;28;20081;-77
2022/05/21 08:53:49;;;;;;;3.38;2.50;;;25.10;46.30;;;;;;5072959;28;20032;-76
2022/05/21 08:56:16;;;;;;;3.55;1.98;;;25.00;46.10;;;;;;5073444;28;20030;-78
2022/05/21 08:58:45;;;;;;;5.55;2.30;;;24.90;46.00;;;;;;5072972;28;20020;-77
2022/05/21 09:01:13;;;;;;;2.55;1.90;;;24.80;46.20;;;;;;5072624;28;20147;-78
2022/05/21 09:03:39;;;;;;;3.60;2.03;;;24.90;47.40;;;;;;5054923;28;20424;-78
2022/05/21 09:06:16;;;;;;;4.35;2.35;;;25.00;47.10;;;;;;5054982;28;20027;-77
2022/05/21 09:08:48;;;;;;;1.98;1.75;;;25.00;47.00;;;;;;5076917;28;20028;-78
2022/05/21 09:11:22;;;;;;;3.42;2.10;;;25.10;46.90;;;;;;5090499;28;20020;-79
2022/05/21 09:14:06;;;;;;;3.78;2.15;;;25.10;45.80;;;;;;5072781;28;20044;-76
2022/05/21 09:16:55;;;;;;;6.10;1.95;;;25.10;46.10;;;;;;5072629;28;20453;-76
2022/05/21 09:19:31;;;;;;;3.50;1.80;;;25.10;46.10;;;;;;5073364;28;20470;-76
2022/05/21 09:22:02;;;;;;;2.78;1.67;;;25.20;46.90;;;;;;5078302;28;20410;-77
2022/05/21 09:24:51;;;;;;;3.28;2.28;;;25.20;46.60;;;;;;5072307;28;20082;-78
2022/05/21 09:27:35;;;;;;;3.38;1.90;;;25.20;46.20;;;;;;5091764;28;20039;-77
2022/05/21 09:30:27;;;;;;;3.22;2.17;;;25.20;45.90;;;;;;5096050;28;20493;-76
2022/05/21 09:32:58;;;;;;;5.32;2.45;;;25.20;45.20;;;;;;5077237;28;20048;-77
2022/05/21 09:35:31;;;;;;;3.42;1.90;;;25.20;44.70;;;;;;5058184;28;20029;-76
2022/05/21 09:38:19;;;;;;;4.87;2.27;;;25.20;45.00;;;;;;5094541;28;20101;-77
2022/05/21 09:40:44;;;;;;;2.80;1.70;;;25.20;45.40;;;;;;5075292;28;20651;-76
2022/05/21 09:46:26;;;;;;;4.45;2.40;;;25.30;45.10;;;;;;5092961;28;20500;-78
2022/05/21 09:48:55;;;;;;;2.28;1.85;;;25.40;44.70;;;;;;5092610;28;20424;-78
2022/05/21 09:51:32;;;;;;;3.80;2.10;;;25.30;44.00;;;;;;5092638;28;20020;-78
2022/05/21 09:53:59;;;;;;;3.22;2.47;;;25.40;44.10;;;;;;5092519;28;20032;-76
2022/05/21 09:56:32;;;;;;;1.98;1.80;;;25.50;43.80;;;;;;5073587;28;20024;-76
2022/05/21 09:59:17;;;;;;;2.47;1.77;;;25.50;44.20;;;;;;5091914;28;20024;-79
2022/05/21 10:01:46;;;;;;;5.70;1.80;;;25.50;44.70;;;;;;5092097;28;20512;-77
2022/05/21 10:04:49;;;;;;;9.52;2.00;;;25.50;43.80;;;;;;5075452;28;20028;-77
2022/05/21 10:13:12;;;;;;;2.10;1.73;;;25.60;43.40;;;;;;5072952;28;20509;-77
2022/05/21 10:15:43;;;;;;;7.97;1.83;;;25.70;44.10;;;;;;5090524;28;20393;-78
2022/05/21 10:18:36;;;;;;;1.90;1.73;;;25.80;42.40;;;;;;5094228;28;20454;-78
2022/05/21 10:21:35;;;;;;;2.53;1.73;;;25.80;42.60;;;;;;5080147;28;20086;-76
2022/05/21 10:24:18;;;;;;;2.67;1.75;;;25.80;42.70;;;;;;5063116;28;20124;-78
2022/05/21 10:26:57;;;;;;;2.67;1.92;;;25.80;42.40;;;;;;5083135;28;20016;-77
2022/05/21 10:29:42;;;;;;;2.50;1.58;;;25.80;41.00;;;;;;5087586;28;20017;-76
2022/05/21 10:32:28;;;;;;;4.95;2.22;;;25.80;41.70;;;;;;5082312;28;20021;-77
2022/05/21 10:34:54;;;;;;;17.35;2.75;;;25.80;41.00;;;;;;5079516;28;20028;-77
2022/05/21 10:37:38;;;;;;;4.18;1.85;;;25.80;40.80;;;;;;5083680;28;20074;-77
2022/05/21 10:40:29;;;;;;;4.65;1.42;;;25.80;41.90;;;;;;5097538;28;20016;-77
2022/05/21 10:43:27;;;;;;;4.25;1.60;;;25.80;41.80;;;;;;5079765;28;20386;-77
2022/05/21 10:46:25;;;;;;;2.25;1.30;;;25.80;41.60;;;;;;5057913;28;20048;-77
2022/05/21 10:49:26;;;;;;;3.30;1.90;;;25.90;41.50;;;;;;5057508;28;20674;-77
2022/05/21 10:52:39;;;;;;;3.22;1.58;;;26.00;41.60;;;;;;5058528;28;20484;-76
2022/05/21 10:55:16;;;;;;;3.90;1.80;;;26.00;41.80;;;;;;5090183;28;20066;-76
2022/05/21 10:58:06;;;;;;;1.65;1.45;;;26.00;40.30;;;;;;5084966;28;20021;-76
2022/05/21 11:01:01;;;;;;;2.40;1.30;;;26.00;40.10;;;;;;5057021;28;20045;-76
2022/05/21 11:03:42;;;;;;;2.35;1.50;;;26.00;40.00;;;;;;5069706;28;20112;-75
2022/05/21 11:06:29;;;;;;;4.63;1.85;;;26.10;40.60;;;;;;5092459;28;20481;-76
2022/05/21 11:09:11;;;;;;;2.97;1.80;;;26.20;40.40;;;;;;5063683;28;20607;-76
2022/05/21 11:11:55;;;;;;;6.07;1.52;;;26.30;40.30;;;;;;5056893;28;20025;-76
2022/05/21 11:14:39;;;;;;;;;;;26.40;40.40;;;;;;5060572;28;20027;-76
2022/05/21 11:17:42;;;;;;;2.47;1.57;;;26.40;41.40;;;;;;5095281;28;19908;-77
2022/05/21 11:20:20;;;;;;;3.08;1.95;;;26.50;39.80;;;;;;5083023;28;20255;-75
2022/05/21 11:23:06;;;;;;;1.85;1.65;;;26.50;38.70;;;;;;5080373;28;20024;-76
2022/05/21 11:25:36;;;;;;;4.32;1.60;;;26.50;38.60;;;;;;5061924;28;20027;-75
2022/05/21 11:28:05;;;;;;;3.72;1.38;;;26.50;38.80;;;;;;5081320;28;20028;-76
2022/05/21 11:30:30;;;;;;;1.95;1.10;;;26.50;38.20;;;;;;5094687;28;20012;-75
2022/05/21 11:38:39;;;;;;;1.83;1.50;;;26.60;37.70;;;;;;5082814;28;20039;-76
2022/05/21 11:41:28;;;;;;;2.78;1.40;;;26.60;36.90;;;;;;5091605;28;20024;-77
2022/05/21 11:47:18;;;;;;;2.65;1.60;;;26.60;37.20;;;;;;5074130;28;20484;-76
2022/05/21 11:49:55;;;;;;;4.20;1.73;;;26.60;37.50;;;;;;5060625;28;20033;-76
2022/05/21 11:52:27;;;;;;;1.63;1.52;;;26.70;37.20;;;;;;5068656;28;20024;-76
2022/05/21 11:55:21;;;;;;;4.85;2.00;;;26.70;38.00;;;;;;5071052;28;20146;-76
2022/05/21 11:57:52;;;;;;;1.83;1.50;;;26.80;37.30;;;;;;5073407;28;20064;-75
2022/05/21 12:00:18;;;;;;;4.22;1.77;;;26.80;36.70;;;;;;5092558;28;20044;-76
2022/05/21 12:02:58;;;;;;;2.78;1.42;;;26.90;36.30;;;;;;5093819;28;20031;-76
2022/05/21 12:05:33;;;;;;;2.67;1.30;;;26.90;37.00;;;;;;5086374;28;20074;-76
2022/05/21 12:08:33;;;;;;;2.05;1.85;;;26.90;36.70;;;;;;5073606;28;20024;-76
2022/05/21 12:11:34;;;;;;;3.22;1.40;;;26.90;37.30;;;;;;5055765;28;20024;-75
2022/05/21 12:14:20;;;;;;;4.63;1.40;;;27.00;37.60;;;;;;5055662;28;20028;-76
2022/05/21 12:16:52;;;;;;;3.00;1.20;;;27.00;36.40;;;;;;5087716;28;20462;-76
2022/05/21 12:19:43;;;;;;;3.17;1.30;;;27.00;36.10;;;;;;5073785;28;20025;-75
2022/05/21 12:22:09;;;;;;;3.78;1.45;;;27.00;36.70;;;;;;5076649;28;20103;-76
2022/05/21 12:24:38;;;;;;;2.13;1.50;;;27.10;35.90;;;;;;5081303;28;20095;-76
2022/05/21 12:27:22;;;;;;;2.35;1.92;;;27.10;35.00;;;;;;5093447;28;20466;-76
2022/05/21 12:29:51;;;;;;;4.18;1.52;;;27.20;35.40;;;;;;5059175;28;20016;-76
2022/05/21 12:32:24;;;;;;;2.03;1.60;;;27.20;35.60;;;;;;5093652;28;20070;-76
2022/05/21 12:35:34;;;;;;;5.10;1.27;;;27.20;34.50;;;;;;5056078;28;20024;-76
2022/05/21 12:38:10;;;;;;;3.72;2.20;;;27.30;35.70;;;;;;5072644;28;20504;-75
2022/05/21 12:41:12;;;;;;;14.68;9.40;;;27.30;34.00;;;;;;5074529;28;20048;-79
2022/05/21 12:43:43;;;;;;;4.88;1.92;;;27.40;34.20;;;;;;5056312;28;20048;-81
2022/05/21 12:46:24;;;;;;;16.52;10.80;;;27.40;34.00;;;;;;5084442;28;20046;-79
2022/05/21 12:48:50;;;;;;;2.15;1.73;;;27.50;34.20;;;;;;5092766;28;20422;-80
2022/05/21 12:51:49;;;;;;;4.93;1.52;;;27.50;33.50;;;;;;5071411;28;20027;-79
2022/05/21 12:54:21;;;;;;;4.88;2.13;;;27.60;33.70;;;;;;5071033;28;20020;-82
2022/05/21 12:56:46;;;;;;;1.52;1.00;;;27.60;33.20;;;;;;5063961;28;20077;-79
2022/05/21 12:59:20;;;;;;;2.55;1.95;;;27.70;32.80;;;;;;5089649;28;20095;-79
2022/05/21 13:01:56;;;;;;;4.00;2.67;;;27.70;32.90;;;;;;5074054;28;20040;-79
2022/05/21 13:04:28;;;;;;;2.28;1.95;;;27.70;32.20;;;;;;5088652;28;20037;-80
2022/05/21 13:07:04;;;;;;;4.53;1.40;;;27.70;32.50;;;;;;5078379;28;20447;-79
2022/05/21 13:09:32;;;;;;;1.80;1.08;;;27.70;31.10;;;;;;5055135;28;20021;-79
2022/05/21 13:11:58;;;;;;;2.83;1.00;;;27.80;30.80;;;;;;5077523;28;20082;-78
2022/05/21 13:14:33;;;;;;;2.15;1.40;;;27.70;30.70;;;;;;5093191;28;20028;-80
2022/05/21 13:16:59;;;;;;;3.45;1.50;;;27.70;31.70;;;;;;5078939;28;20424;-78
2022/05/21 13:19:54;;;;;;;4.57;2.75;;;27.80;31.50;;;;;;5062601;28;20028;-78
2022/05/21 13:22:43;;;;;;;2.80;1.20;;;27.80;31.80;;;;;;5079213;28;20050;-79
2022/05/21 13:25:12;;;;;;;5.30;1.27;;;27.90;31.80;;;;;;5075398;28;20020;-79
2022/05/21 13:27:45;;;;;;;2.88;1.50;;;28.00;30.20;;;;;;5074757;28;20058;-81
2022/05/21 13:30:17;;;;;;;5.90;1.35;;;28.20;30.40;;;;;;5074068;28;20024;-80
2022/05/21 13:32:45;;;;;;;1.58;0.90;;;28.40;30.10;;;;;;5086212;28;20039;-79
2022/05/21 13:35:26;;;;;;;1.33;0.88;;;28.70;30.10;;;;;;5073278;28;20021;-80
2022/05/21 13:37:52;;;;;;;2.28;0.98;;;29.10;29.70;;;;;;5094422;28;20028;-81
2022/05/21 13:40:25;;;;;;;2.03;1.00;;;29.40;28.70;;;;;;5073893;28;20028;-80
2022/05/21 13:43:08;;;;;;;1.00;0.90;;;29.80;28.80;;;;;;5056859;28;20394;-80
2022/05/21 13:45:36;;;;;;;1.00;0.80;;;30.20;28.50;;;;;;5057030;28;20029;-81
2022/05/21 13:48:07;;;;;;;4.57;0.98;;;30.60;28.60;;;;;;5075644;28;20492;-79